sensor_id;sensor_type;location;lat;lon;timestamp;P1;durP1;ratioP1;P2;durP2;ratioP2
1122;SDS011;548;48.778;9.252;2023-07-09T00:00:11;13.50;;;12.90;;
1122;SDS011;548;48.778;9.252;2023-07-09T00:02:40;13.37;;;12.77;;
1122;SDS011;548;48.778;9.252;2023-07-09T00:05:09;13.90;;;13.30;;
1122;SDS011;548;48.778;9.252;2023-07-09T00:07:38;14.17;;;13.40;;
1122;SDS011;548;48.778;9.252;2023-07-09T00:10:08;14.53;;;13.73;;
1122;SDS011;548;48.778;9.252;2023-07-09T00:12:42;15.77;;;14.77;;
1122;SDS011;548;48.778;9.252;2023-07-09T00:15:10;14.27;;;13.50;;
1122;SDS011;548;48.778;9.252;2023-07-09T00:17:37;13.37;;;12.67;;
1122;SDS011;548;48.778;9.252;2023-07-09T00:20:05;12.83;;;12.33;;
1122;SDS011;548;48.778;9.252;2023-07-09T00:22:38;13.43;;;12.90;;
1122;SDS011;548;48.778;9.252;2023-07-09T00:25:07;13.77;;;13.07;;
1122;SDS011;548;48.778;9.252;2023-07-09T00:27:38;12.67;;;12.17;;
1122;SDS011;548;48.778;9.252;2023-07-09T00:30:11;14.00;;;13.30;;
1122;SDS011;548;48.778;9.252;2023-07-09T00:32:41;13.40;;;12.60;;
1122;SDS011;548;48.778;9.252;2023-07-09T00:35:09;12.70;;;12.20;;
1122;SDS011;548;48.778;9.252;2023-07-09T00:37:37;13.33;;;12.83;;
1122;SDS011;548;48.778;9.252;2023-07-09T00:40:05;13.57;;;12.97;;
1122;SDS011;548;48.778;9.252;2023-07-09T00:42:36;13.10;;;12.50;;
1122;SDS011;548;48.778;9.252;2023-07-09T00:45:04;12.10;;;11.60;;
1122;SDS011;548;48.778;9.252;2023-07-09T00:47:47;13.70;;;13.00;;
1122;SDS011;548;48.778;9.252;2023-07-09T00:50:24;12.77;;;12.07;;
1122;SDS011;548;48.778;9.252;2023-07-09T00:52:59;13.50;;;12.80;;
1122;SDS011;548;48.778;9.252;2023-07-09T00:55:32;14.00;;;13.30;;
1122;SDS011;548;48.778;9.252;2023-07-09T00:58:06;13.70;;;13.10;;
1122;SDS011;548;48.778;9.252;2023-07-09T01:00:41;15.30;;;14.50;;
1122;SDS011;548;48.778;9.252;2023-07-09T01:03:18;12.33;;;11.83;;
1122;SDS011;548;48.778;9.252;2023-07-09T01:05:52;12.70;;;12.20;;
1122;SDS011;548;48.778;9.252;2023-07-09T01:08:20;13.27;;;12.67;;
1122;SDS011;548;48.778;9.252;2023-07-09T01:10:47;14.00;;;13.40;;
1122;SDS011;548;48.778;9.252;2023-07-09T01:13:14;13.20;;;12.50;;
1122;SDS011;548;48.778;9.252;2023-07-09T01:15:44;12.70;;;11.90;;
1122;SDS011;548;48.778;9.252;2023-07-09T01:18:12;13.77;;;13.07;;
1122;SDS011;548;48.778;9.252;2023-07-09T01:20:39;12.40;;;11.80;;
1122;SDS011;548;48.778;9.252;2023-07-09T01:23:08;12.93;;;12.43;;
1122;SDS011;548;48.778;9.252;2023-07-09T01:25:43;13.80;;;12.90;;
1122;SDS011;548;48.778;9.252;2023-07-09T01:28:16;12.43;;;11.83;;
1122;SDS011;548;48.778;9.252;2023-07-09T01:30:42;14.37;;;13.73;;
1122;SDS011;548;48.778;9.252;2023-07-09T01:33:09;13.13;;;12.37;;
1122;SDS011;548;48.778;9.252;2023-07-09T01:35:38;12.30;;;11.70;;
1122;SDS011;548;48.778;9.252;2023-07-09T01:38:08;12.23;;;11.73;;
1122;SDS011;548;48.778;9.252;2023-07-09T01:40:36;12.93;;;12.37;;
1122;SDS011;548;48.778;9.252;2023-07-09T01:43:03;14.33;;;13.63;;
1122;SDS011;548;48.778;9.252;2023-07-09T01:45:32;13.57;;;12.87;;
1122;SDS011;548;48.778;9.252;2023-07-09T01:47:59;12.47;;;11.87;;
1122;SDS011;548;48.778;9.252;2023-07-09T01:50:27;13.17;;;12.20;;
1122;SDS011;548;48.778;9.252;2023-07-09T01:52:54;14.43;;;13.83;;
1122;SDS011;548;48.778;9.252;2023-07-09T01:55:23;13.07;;;12.47;;
1122;SDS011;548;48.778;9.252;2023-07-09T01:57:50;14.07;;;13.20;;
1122;SDS011;548;48.778;9.252;2023-07-09T02:00:17;13.23;;;12.43;;
1122;SDS011;548;48.778;9.252;2023-07-09T02:02:44;13.67;;;12.83;;
1122;SDS011;548;48.778;9.252;2023-07-09T02:05:13;11.33;;;10.90;;
1122;SDS011;548;48.778;9.252;2023-07-09T02:07:41;12.23;;;11.73;;
1122;SDS011;548;48.778;9.252;2023-07-09T02:10:08;12.40;;;11.70;;
1122;SDS011;548;48.778;9.252;2023-07-09T02:12:37;12.00;;;11.53;;
1122;SDS011;548;48.778;9.252;2023-07-09T02:15:04;14.60;;;13.70;;
1122;SDS011;548;48.778;9.252;2023-07-09T02:17:32;13.90;;;13.20;;
1122;SDS011;548;48.778;9.252;2023-07-09T02:19:59;14.23;;;13.63;;
1122;SDS011;548;48.778;9.252;2023-07-09T02:22:27;12.73;;;12.13;;
1122;SDS011;548;48.778;9.252;2023-07-09T02:24:54;14.33;;;13.43;;
1122;SDS011;548;48.778;9.252;2023-07-09T02:27:20;13.40;;;12.60;;
1122;SDS011;548;48.778;9.252;2023-07-09T02:29:49;13.40;;;12.80;;
1122;SDS011;548;48.778;9.252;2023-07-09T02:32:17;13.37;;;12.60;;
1122;SDS011;548;48.778;9.252;2023-07-09T02:34:45;11.73;;;11.13;;
1122;SDS011;548;48.778;9.252;2023-07-09T02:37:14;13.10;;;12.30;;
1122;SDS011;548;48.778;9.252;2023-07-09T02:39:42;11.47;;;11.00;;
1122;SDS011;548;48.778;9.252;2023-07-09T02:42:10;12.97;;;12.27;;
1122;SDS011;548;48.778;9.252;2023-07-09T02:44:37;13.30;;;12.70;;
1122;SDS011;548;48.778;9.252;2023-07-09T02:47:06;12.73;;;12.07;;
1122;SDS011;548;48.778;9.252;2023-07-09T02:49:33;13.33;;;12.63;;
1122;SDS011;548;48.778;9.252;2023-07-09T02:52:00;12.23;;;11.73;;
1122;SDS011;548;48.778;9.252;2023-07-09T02:54:27;13.07;;;12.47;;
1122;SDS011;548;48.778;9.252;2023-07-09T02:56:54;13.83;;;13.10;;
1122;SDS011;548;48.778;9.252;2023-07-09T02:59:20;12.97;;;12.37;;
1122;SDS011;548;48.778;9.252;2023-07-09T03:01:47;13.80;;;13.10;;
1122;SDS011;548;48.778;9.252;2023-07-09T03:04:16;12.50;;;12.00;;
1122;SDS011;548;48.778;9.252;2023-07-09T03:06:45;12.03;;;11.33;;
1122;SDS011;548;48.778;9.252;2023-07-09T03:09:12;13.03;;;12.33;;
1122;SDS011;548;48.778;9.252;2023-07-09T03:11:39;13.33;;;12.73;;
1122;SDS011;548;48.778;9.252;2023-07-09T03:14:06;13.33;;;12.73;;
1122;SDS011;548;48.778;9.252;2023-07-09T03:16:34;15.17;;;14.47;;
1122;SDS011;548;48.778;9.252;2023-07-09T03:19:01;14.63;;;13.97;;
1122;SDS011;548;48.778;9.252;2023-07-09T03:21:31;14.67;;;13.97;;
1122;SDS011;548;48.778;9.252;2023-07-09T03:23:58;12.77;;;12.27;;
1122;SDS011;548;48.778;9.252;2023-07-09T03:26:25;14.03;;;12.70;;
1122;SDS011;548;48.778;9.252;2023-07-09T03:28:53;12.90;;;12.40;;
1122;SDS011;548;48.778;9.252;2023-07-09T03:31:20;14.40;;;13.70;;
1122;SDS011;548;48.778;9.252;2023-07-09T03:33:47;14.30;;;13.50;;
1122;SDS011;548;48.778;9.252;2023-07-09T03:36:15;13.50;;;12.80;;
1122;SDS011;548;48.778;9.252;2023-07-09T03:38:45;14.40;;;13.70;;
1122;SDS011;548;48.778;9.252;2023-07-09T03:41:12;15.70;;;14.60;;
1122;SDS011;548;48.778;9.252;2023-07-09T03:43:39;15.80;;;14.90;;
1122;SDS011;548;48.778;9.252;2023-07-09T03:46:05;12.70;;;12.10;;
1122;SDS011;548;48.778;9.252;2023-07-09T03:48:32;14.40;;;13.20;;
1122;SDS011;548;48.778;9.252;2023-07-09T03:50:59;15.60;;;14.90;;
1122;SDS011;548;48.778;9.252;2023-07-09T03:53:25;14.70;;;13.90;;
1122;SDS011;548;48.778;9.252;2023-07-09T03:55:54;14.30;;;13.70;;
1122;SDS011;548;48.778;9.252;2023-07-09T03:58:23;13.50;;;12.70;;
1122;SDS011;548;48.778;9.252;2023-07-09T04:00:50;14.57;;;13.87;;
1122;SDS011;548;48.778;9.252;2023-07-09T04:03:17;13.83;;;13.27;;
1122;SDS011;548;48.778;9.252;2023-07-09T04:05:43;13.50;;;12.70;;
1122;SDS011;548;48.778;9.252;2023-07-09T04:08:10;13.10;;;12.50;;
1122;SDS011;548;48.778;9.252;2023-07-09T04:10:37;12.90;;;12.30;;
1122;SDS011;548;48.778;9.252;2023-07-09T04:13:05;12.57;;;11.97;;
1122;SDS011;548;48.778;9.252;2023-07-09T04:15:32;14.83;;;14.07;;
1122;SDS011;548;48.778;9.252;2023-07-09T04:17:59;13.50;;;12.70;;
1122;SDS011;548;48.778;9.252;2023-07-09T04:20:26;15.23;;;14.30;;
1122;SDS011;548;48.778;9.252;2023-07-09T04:22:53;14.03;;;12.80;;
1122;SDS011;548;48.778;9.252;2023-07-09T04:25:20;13.77;;;13.17;;
1122;SDS011;548;48.778;9.252;2023-07-09T04:27:47;14.20;;;13.60;;
1122;SDS011;548;48.778;9.252;2023-07-09T04:30:15;15.17;;;14.30;;
1122;SDS011;548;48.778;9.252;2023-07-09T04:32:42;13.83;;;13.13;;
1122;SDS011;548;48.778;9.252;2023-07-09T04:35:10;15.33;;;14.43;;
1122;SDS011;548;48.778;9.252;2023-07-09T04:37:37;14.23;;;13.47;;
1122;SDS011;548;48.778;9.252;2023-07-09T04:40:05;12.37;;;11.87;;
1122;SDS011;548;48.778;9.252;2023-07-09T04:42:35;14.33;;;13.10;;
1122;SDS011;548;48.778;9.252;2023-07-09T04:45:03;13.90;;;13.00;;
1122;SDS011;548;48.778;9.252;2023-07-09T04:47:31;13.23;;;12.53;;
1122;SDS011;548;48.778;9.252;2023-07-09T04:49:58;14.43;;;13.50;;
1122;SDS011;548;48.778;9.252;2023-07-09T04:52:24;12.47;;;11.93;;
1122;SDS011;548;48.778;9.252;2023-07-09T04:54:51;13.33;;;12.73;;
1122;SDS011;548;48.778;9.252;2023-07-09T04:57:18;14.83;;;14.03;;
1122;SDS011;548;48.778;9.252;2023-07-09T04:59:45;13.43;;;12.63;;
1122;SDS011;548;48.778;9.252;2023-07-09T05:02:12;12.70;;;12.10;;
1122;SDS011;548;48.778;9.252;2023-07-09T05:04:40;13.73;;;13.03;;
1122;SDS011;548;48.778;9.252;2023-07-09T05:07:07;13.43;;;12.83;;
1122;SDS011;548;48.778;9.252;2023-07-09T05:09:34;14.13;;;13.43;;
1122;SDS011;548;48.778;9.252;2023-07-09T05:12:00;14.63;;;13.73;;
1122;SDS011;548;48.778;9.252;2023-07-09T05:14:27;12.67;;;12.07;;
1122;SDS011;548;48.778;9.252;2023-07-09T05:16:54;13.77;;;13.10;;
1122;SDS011;548;48.778;9.252;2023-07-09T05:19:21;14.83;;;13.50;;
1122;SDS011;548;48.778;9.252;2023-07-09T05:21:49;14.53;;;13.70;;
1122;SDS011;548;48.778;9.252;2023-07-09T05:24:16;13.80;;;12.80;;
1122;SDS011;548;48.778;9.252;2023-07-09T05:26:42;13.47;;;12.87;;
1122;SDS011;548;48.778;9.252;2023-07-09T05:29:09;12.30;;;11.70;;
1122;SDS011;548;48.778;9.252;2023-07-09T05:31:36;13.30;;;12.70;;
1122;SDS011;548;48.778;9.252;2023-07-09T05:34:03;13.03;;;12.30;;
1122;SDS011;548;48.778;9.252;2023-07-09T05:36:29;13.23;;;12.53;;
1122;SDS011;548;48.778;9.252;2023-07-09T05:38:58;15.07;;;14.37;;
1122;SDS011;548;48.778;9.252;2023-07-09T05:41:24;15.60;;;14.70;;
1122;SDS011;548;48.778;9.252;2023-07-09T05:43:51;16.27;;;15.53;;
1122;SDS011;548;48.778;9.252;2023-07-09T05:46:18;14.07;;;13.37;;
1122;SDS011;548;48.778;9.252;2023-07-09T05:48:47;13.70;;;13.00;;
1122;SDS011;548;48.778;9.252;2023-07-09T05:51:14;13.53;;;12.93;;
1122;SDS011;548;48.778;9.252;2023-07-09T05:53:41;13.87;;;13.07;;
1122;SDS011;548;48.778;9.252;2023-07-09T05:56:09;12.93;;;12.37;;
1122;SDS011;548;48.778;9.252;2023-07-09T05:58:36;13.20;;;12.60;;
1122;SDS011;548;48.778;9.252;2023-07-09T06:01:03;13.40;;;12.80;;
1122;SDS011;548;48.778;9.252;2023-07-09T06:03:30;12.50;;;11.90;;
1122;SDS011;548;48.778;9.252;2023-07-09T06:05:58;14.77;;;14.00;;
1122;SDS011;548;48.778;9.252;2023-07-09T06:08:25;12.93;;;12.30;;
1122;SDS011;548;48.778;9.252;2023-07-09T06:10:53;12.77;;;11.93;;
1122;SDS011;548;48.778;9.252;2023-07-09T06:13:22;14.20;;;13.53;;
1122;SDS011;548;48.778;9.252;2023-07-09T06:15:50;14.20;;;13.10;;
1122;SDS011;548;48.778;9.252;2023-07-09T06:18:18;14.27;;;13.50;;
1122;SDS011;548;48.778;9.252;2023-07-09T06:20:46;15.10;;;14.10;;
1122;SDS011;548;48.778;9.252;2023-07-09T06:23:14;13.90;;;13.20;;
1122;SDS011;548;48.778;9.252;2023-07-09T06:25:41;14.70;;;13.90;;
1122;SDS011;548;48.778;9.252;2023-07-09T06:28:12;13.30;;;12.70;;
1122;SDS011;548;48.778;9.252;2023-07-09T06:30:41;13.53;;;12.70;;
1122;SDS011;548;48.778;9.252;2023-07-09T06:33:08;13.60;;;12.93;;
1122;SDS011;548;48.778;9.252;2023-07-09T06:35:36;14.43;;;13.13;;
1122;SDS011;548;48.778;9.252;2023-07-09T06:38:03;14.90;;;14.10;;
1122;SDS011;548;48.778;9.252;2023-07-09T06:40:29;14.17;;;13.47;;
1122;SDS011;548;48.778;9.252;2023-07-09T06:42:56;14.80;;;13.90;;
1122;SDS011;548;48.778;9.252;2023-07-09T06:45:23;14.00;;;13.17;;
1122;SDS011;548;48.778;9.252;2023-07-09T06:47:52;12.60;;;12.10;;
1122;SDS011;548;48.778;9.252;2023-07-09T06:50:19;13.10;;;12.33;;
1122;SDS011;548;48.778;9.252;2023-07-09T06:52:46;13.43;;;12.80;;
1122;SDS011;548;48.778;9.252;2023-07-09T06:55:12;13.37;;;12.67;;
1122;SDS011;548;48.778;9.252;2023-07-09T06:57:39;14.33;;;13.63;;
1122;SDS011;548;48.778;9.252;2023-07-09T07:00:07;14.23;;;13.60;;
1122;SDS011;548;48.778;9.252;2023-07-09T07:02:34;13.80;;;13.00;;
1122;SDS011;548;48.778;9.252;2023-07-09T07:05:02;13.83;;;12.90;;
1122;SDS011;548;48.778;9.252;2023-07-09T07:07:29;13.50;;;12.80;;
1122;SDS011;548;48.778;9.252;2023-07-09T07:09:56;12.60;;;12.00;;
1122;SDS011;548;48.778;9.252;2023-07-09T07:12:23;12.80;;;12.30;;
1122;SDS011;548;48.778;9.252;2023-07-09T07:14:51;12.97;;;12.37;;
1122;SDS011;548;48.778;9.252;2023-07-09T07:17:18;13.63;;;13.00;;
1122;SDS011;548;48.778;9.252;2023-07-09T07:19:45;15.87;;;14.87;;
1122;SDS011;548;48.778;9.252;2023-07-09T07:22:13;14.23;;;13.27;;
1122;SDS011;548;48.778;9.252;2023-07-09T07:24:40;14.27;;;13.57;;
1122;SDS011;548;48.778;9.252;2023-07-09T07:27:07;15.53;;;14.83;;
1122;SDS011;548;48.778;9.252;2023-07-09T07:29:34;14.63;;;14.03;;
1122;SDS011;548;48.778;9.252;2023-07-09T07:32:01;14.30;;;13.70;;
1122;SDS011;548;48.778;9.252;2023-07-09T07:34:28;13.90;;;13.20;;
1122;SDS011;548;48.778;9.252;2023-07-09T07:36:55;14.37;;;13.47;;
1122;SDS011;548;48.778;9.252;2023-07-09T07:39:23;14.67;;;14.07;;
1122;SDS011;548;48.778;9.252;2023-07-09T07:41:50;15.13;;;14.10;;
1122;SDS011;548;48.778;9.252;2023-07-09T07:44:16;13.87;;;13.17;;
1122;SDS011;548;48.778;9.252;2023-07-09T07:46:43;15.40;;;14.70;;
1122;SDS011;548;48.778;9.252;2023-07-09T07:49:10;16.20;;;15.20;;
1122;SDS011;548;48.778;9.252;2023-07-09T07:51:37;16.07;;;15.00;;
1122;SDS011;548;48.778;9.252;2023-07-09T07:54:04;14.40;;;13.70;;
1122;SDS011;548;48.778;9.252;2023-07-09T07:56:35;15.40;;;14.60;;
1122;SDS011;548;48.778;9.252;2023-07-09T07:59:01;15.70;;;15.00;;
1122;SDS011;548;48.778;9.252;2023-07-09T08:01:28;15.10;;;14.43;;
1122;SDS011;548;48.778;9.252;2023-07-09T08:03:56;14.00;;;13.40;;
1122;SDS011;548;48.778;9.252;2023-07-09T08:06:22;14.00;;;13.40;;
1122;SDS011;548;48.778;9.252;2023-07-09T08:08:49;15.87;;;15.17;;
1122;SDS011;548;48.778;9.252;2023-07-09T08:11:16;14.63;;;14.10;;
1122;SDS011;548;48.778;9.252;2023-07-09T08:13:44;16.63;;;15.53;;
1122;SDS011;548;48.778;9.252;2023-07-09T08:16:17;16.07;;;15.17;;
1122;SDS011;548;48.778;9.252;2023-07-09T08:18:56;15.37;;;14.70;;
1122;SDS011;548;48.778;9.252;2023-07-09T08:21:22;15.00;;;14.33;;
1122;SDS011;548;48.778;9.252;2023-07-09T08:23:49;15.47;;;14.77;;
1122;SDS011;548;48.778;9.252;2023-07-09T08:26:16;16.60;;;15.90;;
1122;SDS011;548;48.778;9.252;2023-07-09T08:28:42;15.53;;;14.83;;
1122;SDS011;548;48.778;9.252;2023-07-09T08:31:11;14.50;;;14.00;;
1122;SDS011;548;48.778;9.252;2023-07-09T08:33:37;15.20;;;14.60;;
1122;SDS011;548;48.778;9.252;2023-07-09T08:36:05;18.40;;;17.47;;
1122;SDS011;548;48.778;9.252;2023-07-09T08:38:31;17.70;;;16.70;;
1122;SDS011;548;48.778;9.252;2023-07-09T08:40:59;16.80;;;16.00;;
1122;SDS011;548;48.778;9.252;2023-07-09T08:43:32;15.00;;;14.40;;
1122;SDS011;548;48.778;9.252;2023-07-09T08:46:10;15.60;;;15.00;;
1122;SDS011;548;48.778;9.252;2023-07-09T08:48:44;15.60;;;14.80;;
1122;SDS011;548;48.778;9.252;2023-07-09T08:51:18;15.67;;;14.97;;
1122;SDS011;548;48.778;9.252;2023-07-09T08:53:54;15.43;;;14.83;;
1122;SDS011;548;48.778;9.252;2023-07-09T08:56:23;16.57;;;15.87;;
1122;SDS011;548;48.778;9.252;2023-07-09T08:58:52;17.27;;;16.57;;
1122;SDS011;548;48.778;9.252;2023-07-09T09:01:24;15.70;;;15.10;;
1122;SDS011;548;48.778;9.252;2023-07-09T09:03:57;17.20;;;16.50;;
1122;SDS011;548;48.778;9.252;2023-07-09T09:06:27;14.87;;;14.27;;
1122;SDS011;548;48.778;9.252;2023-07-09T09:08:58;15.87;;;14.93;;
1122;SDS011;548;48.778;9.252;2023-07-09T09:11:37;15.03;;;14.23;;
1122;SDS011;548;48.778;9.252;2023-07-09T09:14:17;15.33;;;14.40;;
1122;SDS011;548;48.778;9.252;2023-07-09T09:16:51;15.57;;;14.87;;
1122;SDS011;548;48.778;9.252;2023-07-09T09:19:20;15.67;;;15.07;;
1122;SDS011;548;48.778;9.252;2023-07-09T09:21:50;18.00;;;17.03;;
1122;SDS011;548;48.778;9.252;2023-07-09T09:24:25;15.47;;;14.87;;
1122;SDS011;548;48.778;9.252;2023-07-09T09:26:57;15.80;;;15.10;;
1122;SDS011;548;48.778;9.252;2023-07-09T09:29:25;16.37;;;15.17;;
1122;SDS011;548;48.778;9.252;2023-07-09T09:31:54;15.47;;;14.83;;
1122;SDS011;548;48.778;9.252;2023-07-09T09:34:24;15.50;;;14.90;;
1122;SDS011;548;48.778;9.252;2023-07-09T09:36:53;15.10;;;14.53;;
1122;SDS011;548;48.778;9.252;2023-07-09T09:39:20;15.00;;;14.40;;
1122;SDS011;548;48.778;9.252;2023-07-09T09:41:49;14.63;;;14.03;;
1122;SDS011;548;48.778;9.252;2023-07-09T09:44:20;16.07;;;15.30;;
1122;SDS011;548;48.778;9.252;2023-07-09T09:46:50;16.23;;;15.07;;
1122;SDS011;548;48.778;9.252;2023-07-09T09:49:19;15.00;;;14.30;;
1122;SDS011;548;48.778;9.252;2023-07-09T09:51:46;16.67;;;15.97;;
1122;SDS011;548;48.778;9.252;2023-07-09T09:54:15;15.43;;;14.83;;
1122;SDS011;548;48.778;9.252;2023-07-09T09:56:44;16.40;;;15.70;;
1122;SDS011;548;48.778;9.252;2023-07-09T09:59:15;15.60;;;15.00;;
1122;SDS011;548;48.778;9.252;2023-07-09T10:01:44;15.40;;;14.80;;
1122;SDS011;548;48.778;9.252;2023-07-09T10:04:14;16.30;;;15.70;;
1122;SDS011;548;48.778;9.252;2023-07-09T10:06:46;16.60;;;16.00;;
1122;SDS011;548;48.778;9.252;2023-07-09T10:09:19;16.80;;;16.10;;
1122;SDS011;548;48.778;9.252;2023-07-09T10:11:53;15.67;;;15.07;;
1122;SDS011;548;48.778;9.252;2023-07-09T10:14:31;15.67;;;15.07;;
1122;SDS011;548;48.778;9.252;2023-07-09T10:17:04;15.00;;;14.40;;
1122;SDS011;548;48.778;9.252;2023-07-09T10:19:45;16.40;;;15.70;;
1122;SDS011;548;48.778;9.252;2023-07-09T10:22:19;14.83;;;14.33;;
1122;SDS011;548;48.778;9.252;2023-07-09T10:24:55;16.23;;;15.63;;
1122;SDS011;548;48.778;9.252;2023-07-09T10:27:29;16.50;;;15.90;;
1122;SDS011;548;48.778;9.252;2023-07-09T10:30:15;16.57;;;15.17;;
1122;SDS011;548;48.778;9.252;2023-07-09T10:32:55;16.03;;;15.17;;
1122;SDS011;548;48.778;9.252;2023-07-09T10:35:30;16.50;;;15.70;;
1122;SDS011;548;48.778;9.252;2023-07-09T10:38:07;16.03;;;15.33;;
1122;SDS011;548;48.778;9.252;2023-07-09T10:40:47;16.07;;;15.37;;
1122;SDS011;548;48.778;9.252;2023-07-09T10:43:18;15.00;;;14.30;;
1122;SDS011;548;48.778;9.252;2023-07-09T10:45:49;17.47;;;16.70;;
1122;SDS011;548;48.778;9.252;2023-07-09T10:48:26;16.03;;;15.43;;
1122;SDS011;548;48.778;9.252;2023-07-09T10:50:59;17.30;;;16.40;;
1122;SDS011;548;48.778;9.252;2023-07-09T10:53:31;16.70;;;16.07;;
1122;SDS011;548;48.778;9.252;2023-07-09T10:56:05;16.13;;;15.47;;
1122;SDS011;548;48.778;9.252;2023-07-09T10:58:39;16.80;;;16.20;;
1122;SDS011;548;48.778;9.252;2023-07-09T11:01:11;17.23;;;16.50;;
1122;SDS011;548;48.778;9.252;2023-07-09T11:03:40;16.77;;;16.17;;
1122;SDS011;548;48.778;9.252;2023-07-09T11:06:13;18.57;;;17.87;;
1122;SDS011;548;48.778;9.252;2023-07-09T11:08:45;19.38;;;18.52;;
1122;SDS011;548;48.778;9.252;2023-07-09T11:11:17;18.52;;;17.83;;
1122;SDS011;548;48.778;9.252;2023-07-09T11:13:52;18.05;;;17.45;;
1122;SDS011;548;48.778;9.252;2023-07-09T11:16:26;17.30;;;16.60;;
1122;SDS011;548;48.778;9.252;2023-07-09T11:18:55;16.60;;;16.00;;
1122;SDS011;548;48.778;9.252;2023-07-09T11:21:24;16.77;;;15.90;;
1122;SDS011;548;48.778;9.252;2023-07-09T11:23:53;18.23;;;17.33;;
1122;SDS011;548;48.778;9.252;2023-07-09T11:26:22;16.50;;;15.87;;
1122;SDS011;548;48.778;9.252;2023-07-09T11:28:51;16.40;;;15.63;;
1122;SDS011;548;48.778;9.252;2023-07-09T11:31:21;16.97;;;16.17;;
1122;SDS011;548;48.778;9.252;2023-07-09T11:33:49;16.20;;;15.60;;
1122;SDS011;548;48.778;9.252;2023-07-09T11:36:26;16.90;;;16.20;;
1122;SDS011;548;48.778;9.252;2023-07-09T11:38:55;15.97;;;15.30;;
1122;SDS011;548;48.778;9.252;2023-07-09T11:41:25;18.40;;;17.60;;
1122;SDS011;548;48.778;9.252;2023-07-09T11:44:02;17.07;;;16.40;;
1122;SDS011;548;48.778;9.252;2023-07-09T11:46:31;17.43;;;16.83;;
1122;SDS011;548;48.778;9.252;2023-07-09T11:49:01;17.87;;;17.07;;
1122;SDS011;548;48.778;9.252;2023-07-09T11:51:31;18.10;;;17.40;;
1122;SDS011;548;48.778;9.252;2023-07-09T11:54:04;19.77;;;18.87;;
1122;SDS011;548;48.778;9.252;2023-07-09T11:56:32;17.57;;;16.87;;
1122;SDS011;548;48.778;9.252;2023-07-09T11:58:59;18.43;;;17.63;;
1122;SDS011;548;48.778;9.252;2023-07-09T12:01:26;16.67;;;15.97;;
1122;SDS011;548;48.778;9.252;2023-07-09T12:03:58;18.70;;;17.97;;
1122;SDS011;548;48.778;9.252;2023-07-09T12:06:26;18.70;;;17.90;;
1122;SDS011;548;48.778;9.252;2023-07-09T12:08:54;18.15;;;17.35;;
1122;SDS011;548;48.778;9.252;2023-07-09T12:11:23;18.60;;;17.85;;
1122;SDS011;548;48.778;9.252;2023-07-09T12:13:51;19.13;;;18.13;;
1122;SDS011;548;48.778;9.252;2023-07-09T12:16:20;18.77;;;17.98;;
1122;SDS011;548;48.778;9.252;2023-07-09T12:18:47;19.85;;;18.85;;
1122;SDS011;548;48.778;9.252;2023-07-09T12:21:14;18.23;;;17.27;;
1122;SDS011;548;48.778;9.252;2023-07-09T12:23:41;17.30;;;16.40;;
1122;SDS011;548;48.778;9.252;2023-07-09T12:26:10;17.80;;;17.07;;
1122;SDS011;548;48.778;9.252;2023-07-09T12:28:41;16.53;;;15.73;;
1122;SDS011;548;48.778;9.252;2023-07-09T12:31:11;18.80;;;17.90;;
1122;SDS011;548;48.778;9.252;2023-07-09T12:33:45;17.97;;;17.17;;
1122;SDS011;548;48.778;9.252;2023-07-09T12:36:13;17.13;;;16.23;;
1122;SDS011;548;48.778;9.252;2023-07-09T12:38:45;17.00;;;16.30;;
1122;SDS011;548;48.778;9.252;2023-07-09T12:41:17;19.20;;;18.30;;
1122;SDS011;548;48.778;9.252;2023-07-09T12:43:47;18.37;;;17.37;;
1122;SDS011;548;48.778;9.252;2023-07-09T12:46:15;18.17;;;17.37;;
1122;SDS011;548;48.778;9.252;2023-07-09T12:48:42;17.23;;;16.53;;
1122;SDS011;548;48.778;9.252;2023-07-09T12:51:13;16.40;;;15.70;;
1122;SDS011;548;48.778;9.252;2023-07-09T12:53:44;17.20;;;16.50;;
1122;SDS011;548;48.778;9.252;2023-07-09T12:56:12;19.60;;;18.80;;
1122;SDS011;548;48.778;9.252;2023-07-09T12:58:42;19.10;;;18.20;;
1122;SDS011;548;48.778;9.252;2023-07-09T13:01:13;20.43;;;19.53;;
1122;SDS011;548;48.778;9.252;2023-07-09T13:03:41;18.37;;;17.27;;
1122;SDS011;548;48.778;9.252;2023-07-09T13:06:24;18.43;;;17.53;;
1122;SDS011;548;48.778;9.252;2023-07-09T13:08:55;18.83;;;17.90;;
1122;SDS011;548;48.778;9.252;2023-07-09T13:11:23;16.87;;;16.20;;
1122;SDS011;548;48.778;9.252;2023-07-09T13:13:54;17.40;;;16.70;;
1122;SDS011;548;48.778;9.252;2023-07-09T13:16:23;17.60;;;16.90;;
1122;SDS011;548;48.778;9.252;2023-07-09T13:18:50;19.17;;;18.37;;
1122;SDS011;548;48.778;9.252;2023-07-09T13:21:17;18.80;;;17.70;;
1122;SDS011;548;48.778;9.252;2023-07-09T13:23:45;16.87;;;16.17;;
1122;SDS011;548;48.778;9.252;2023-07-09T13:26:12;16.60;;;16.00;;
1122;SDS011;548;48.778;9.252;2023-07-09T13:28:41;17.30;;;16.60;;
1122;SDS011;548;48.778;9.252;2023-07-09T13:31:11;17.60;;;16.67;;
1122;SDS011;548;48.778;9.252;2023-07-09T13:33:42;17.23;;;16.43;;
1122;SDS011;548;48.778;9.252;2023-07-09T13:36:09;15.93;;;15.33;;
1122;SDS011;548;48.778;9.252;2023-07-09T13:38:36;16.80;;;16.10;;
1122;SDS011;548;48.778;9.252;2023-07-09T13:41:09;16.17;;;15.33;;
1122;SDS011;548;48.778;9.252;2023-07-09T13:43:40;16.23;;;15.47;;
1122;SDS011;548;48.778;9.252;2023-07-09T13:46:08;16.17;;;15.37;;
1122;SDS011;548;48.778;9.252;2023-07-09T13:48:37;15.07;;;14.47;;
1122;SDS011;548;48.778;9.252;2023-07-09T13:51:13;15.20;;;14.50;;
1122;SDS011;548;48.778;9.252;2023-07-09T13:53:42;16.60;;;15.90;;
1122;SDS011;548;48.778;9.252;2023-07-09T13:56:09;14.83;;;14.23;;
1122;SDS011;548;48.778;9.252;2023-07-09T13:58:35;15.67;;;14.97;;
1122;SDS011;548;48.778;9.252;2023-07-09T14:01:08;17.20;;;15.87;;
1122;SDS011;548;48.778;9.252;2023-07-09T14:03:37;15.37;;;14.77;;
1122;SDS011;548;48.778;9.252;2023-07-09T14:06:04;16.07;;;15.20;;
1122;SDS011;548;48.778;9.252;2023-07-09T14:08:32;14.60;;;14.00;;
1122;SDS011;548;48.778;9.252;2023-07-09T14:11:00;15.00;;;14.30;;
1122;SDS011;548;48.778;9.252;2023-07-09T14:13:26;14.93;;;14.20;;
1122;SDS011;548;48.778;9.252;2023-07-09T14:15:56;15.10;;;14.50;;
1122;SDS011;548;48.778;9.252;2023-07-09T14:18:23;15.50;;;14.90;;
1122;SDS011;548;48.778;9.252;2023-07-09T14:20:50;16.47;;;15.77;;
1122;SDS011;548;48.778;9.252;2023-07-09T14:23:18;17.37;;;16.77;;
1122;SDS011;548;48.778;9.252;2023-07-09T14:25:46;14.07;;;13.50;;
1122;SDS011;548;48.778;9.252;2023-07-09T14:28:14;14.60;;;13.60;;
1122;SDS011;548;48.778;9.252;2023-07-09T14:30:43;14.93;;;14.23;;
1122;SDS011;548;48.778;9.252;2023-07-09T14:33:12;15.07;;;14.47;;
1122;SDS011;548;48.778;9.252;2023-07-09T14:35:41;15.23;;;14.63;;
1122;SDS011;548;48.778;9.252;2023-07-09T14:38:12;14.57;;;13.97;;
1122;SDS011;548;48.778;9.252;2023-07-09T14:40:48;15.67;;;14.87;;
1122;SDS011;548;48.778;9.252;2023-07-09T14:43:16;15.60;;;14.97;;
1122;SDS011;548;48.778;9.252;2023-07-09T14:45:43;16.37;;;15.67;;
1122;SDS011;548;48.778;9.252;2023-07-09T14:48:10;16.40;;;15.60;;
1122;SDS011;548;48.778;9.252;2023-07-09T14:50:38;15.70;;;15.00;;
1122;SDS011;548;48.778;9.252;2023-07-09T14:53:09;17.50;;;16.60;;
1122;SDS011;548;48.778;9.252;2023-07-09T14:55:39;15.77;;;15.17;;
1122;SDS011;548;48.778;9.252;2023-07-09T14:58:10;30.80;;;28.50;;
1122;SDS011;548;48.778;9.252;2023-07-09T15:00:40;26.70;;;25.03;;
1122;SDS011;548;48.778;9.252;2023-07-09T15:03:09;19.53;;;18.40;;
1122;SDS011;548;48.778;9.252;2023-07-09T15:05:36;15.47;;;14.87;;
1122;SDS011;548;48.778;9.252;2023-07-09T15:08:06;13.90;;;13.30;;
1122;SDS011;548;48.778;9.252;2023-07-09T15:10:38;14.93;;;14.33;;